Time;durP1;ratioP1;P1;durP2;ratioP2;P2;SDS_P1;SDS_P2;PMS_P1;PMS_P2;Temp;Humidity;BMP_temperature;BMP_pressure;BME280_temperature;BME280_humidity;BME280_pressure;Samples;Min_cycle;Max_cycle;Signal;HPM_P1;HPM_P2
2023/06/12 00:02:13;;;;;;;2.97;2.58;;;;;;;;;;5094861;28;20028;-78
2023/06/12 00:04:39;;;;;;;3.35;3.03;;;;;;;;;;5093689;28;20027;-78
2023/06/12 00:07:05;;;;;;;3.67;2.47;;;;;;;;;;5094057;28;20020;-79
2023/06/12 00:09:31;;;;;;;2.72;2.45;;;;;;;;;;5094738;28;20062;-78
2023/06/12 00:11:57;;;;;;;4.35;2.97;;;;;;;;;;5094911;28;20028;-78
2023/06/12 00:14:22;;;;;;;2.90;2.63;;;;;;;;;;5094682;28;20042;-79
2023/06/12 00:16:48;;;;;;;2.80;2.50;;;;;;;;;;5094621;28;20024;-79
2023/06/12 00:19:13;;;;;;;2.85;2.63;;;;;;;;;;5093650;28;20190;-79
2023/06/12 00:21:39;;;;;;;2.88;2.50;;;;;;;;;;5093284;28;20024;-78
2023/06/12 00:24:08;;;;;;;3.53;2.30;;;;;;;;;;5093289;28;20020;-79
2023/06/12 00:26:34;;;;;;;3.00;2.70;;;;;;;;;;5093332;28;20023;-79
2023/06/12 00:29:00;;;;;;;2.90;2.50;;;;;;;;;;5094462;28;20050;-79
2023/06/12 00:31:25;;;;;;;3.08;2.78;;;;;;;;;;5076118;28;20486;-78
2023/06/12 00:33:50;;;;;;;3.08;2.78;;;;;;;;;;5094353;28;20030;-79
2023/06/12 00:36:16;;;;;;;2.90;2.55;;;;;;;;;;5093112;28;20059;-79
2023/06/12 00:38:41;;;;;;;3.95;2.80;;;;;;;;;;5092953;28;20032;-79
2023/06/12 00:41:07;;;;;;;2.85;2.65;;;;;;;;;;5076100;28;20433;-79
2023/06/12 00:43:33;;;;;;;3.80;2.38;;;;;;;;;;5094047;28;20055;-79
2023/06/12 00:45:59;;;;;;;2.88;2.53;;;;;;;;;;5093043;28;20028;-79
2023/06/12 00:48:25;;;;;;;2.95;2.60;;;;;;;;;;5093048;28;20536;-80
2023/06/12 00:50:52;;;;;;;4.30;2.38;;;;;;;;;;5092423;28;20123;-79
2023/06/12 00:53:18;;;;;;;4.28;2.65;;;;;;;;;;5092900;28;20500;-78
2023/06/12 00:55:43;;;;;;;3.00;2.70;;;;;;;;;;5094081;28;20154;-79
2023/06/12 00:58:09;;;;;;;2.75;2.55;;;;;;;;;;5094160;28;20115;-79
2023/06/12 01:00:38;;;;;;;2.55;2.33;;;;;;;;;;5075764;28;20073;-79
2023/06/12 01:03:06;;;;;;;3.05;2.60;;;;;;;;;;5093733;28;20028;-79
2023/06/12 01:05:38;;;;;;;4.70;2.80;;;;;;;;;;5092566;28;20023;-79
2023/06/12 01:08:26;;;;;;;4.75;2.40;;;;;;;;;;5092723;28;20475;-79
2023/06/12 01:11:02;;;;;;;3.60;2.50;;;;;;;;;;5093863;28;20036;-79
2023/06/12 01:13:28;;;;;;;2.72;2.33;;;;;;;;;;5093847;28;20461;-79
2023/06/12 01:15:54;;;;;;;3.33;2.80;;;;;;;;;;5092660;28;20028;-79
2023/06/12 01:18:21;;;;;;;2.97;2.55;;;;;;;;;;5075400;28;20032;-79
2023/06/12 01:20:47;;;;;;;2.80;2.50;;;;;;;;;;5092321;28;20059;-78
2023/06/12 01:23:46;;;;;;;2.80;2.50;;;;;;;;;;5092507;28;20124;-79
2023/06/12 01:26:45;;;;;;;2.72;2.45;;;;;;;;;;5092322;28;20115;-78
2023/06/12 01:29:29;;;;;;;2.65;2.28;;;;;;;;;;5092218;28;20046;-78
2023/06/12 01:32:07;;;;;;;3.55;2.40;;;;;;;;;;5093520;28;20020;-79
2023/06/12 01:34:37;;;;;;;2.92;2.60;;;;;;;;;;5075199;28;20396;-78
2023/06/12 01:37:13;;;;;;;3.97;2.50;;;;;;;;;;5075285;28;20085;-78
2023/06/12 01:39:40;;;;;;;6.97;3.45;;;;;;;;;;5091962;28;20035;-78
2023/06/12 01:42:07;;;;;;;4.10;2.47;;;;;;;;;;5091942;28;20024;-79
2023/06/12 01:44:33;;;;;;;2.80;2.60;;;;;;;;;;5091969;28;20020;-78
2023/06/12 01:46:58;;;;;;;3.40;2.47;;;;;;;;;;5091929;28;20024;-79
2023/06/12 01:49:23;;;;;;;2.60;2.40;;;;;;;;;;5092118;28;20382;-79
2023/06/12 01:51:49;;;;;;;2.50;2.30;;;;;;;;;;5075051;28;20081;-79
2023/06/12 01:54:15;;;;;;;3.40;2.58;;;;;;;;;;5093158;28;20034;-79
2023/06/12 01:56:42;;;;;;;3.72;2.58;;;;;;;;;;5093134;28;20028;-79
2023/06/12 01:59:08;;;;;;;2.40;2.20;;;;;;;;;;5093466;28;20028;-79
2023/06/12 02:01:33;;;;;;;4.28;2.40;;;;;;;;;;5091767;28;20024;-79
2023/06/12 02:03:59;;;;;;;2.60;2.40;;;;;;;;;;5094908;28;20111;-79
2023/06/12 02:06:25;;;;;;;2.60;2.40;;;;;;;;;;5096632;28;20573;-79
2023/06/12 02:08:50;;;;;;;3.67;2.60;;;;;;;;;;5097055;28;20028;-78
2023/06/12 02:11:16;;;;;;;2.85;2.58;;;;;;;;;;5096055;28;20081;-79
2023/06/12 02:13:41;;;;;;;2.50;2.30;;;;;;;;;;5096165;28;20471;-79
2023/06/12 02:16:07;;;;;;;2.63;2.42;;;;;;;;;;5095860;28;20032;-79
2023/06/12 02:18:33;;;;;;;3.17;2.80;;;;;;;;;;5097221;28;20036;-79
2023/06/12 02:20:59;;;;;;;2.53;2.33;;;;;;;;;;5097001;28;20038;-79
2023/06/12 02:23:24;;;;;;;3.40;2.55;;;;;;;;;;5095587;28;20055;-79
2023/06/12 02:25:50;;;;;;;2.50;2.28;;;;;;;;;;5095563;28;20103;-79
2023/06/12 02:28:15;;;;;;;2.90;2.60;;;;;;;;;;5078643;28;20048;-79
2023/06/12 02:30:41;;;;;;;3.10;2.55;;;;;;;;;;5095824;28;20032;-79
2023/06/12 02:33:09;;;;;;;2.63;2.28;;;;;;;;;;5095388;28;20114;-79
2023/06/12 02:35:38;;;;;;;3.40;2.75;;;;;;;;;;5096909;28;20035;-79
2023/06/12 02:38:04;;;;;;;2.53;2.20;;;;;;;;;;5096883;28;20028;-80
2023/06/12 02:40:29;;;;;;;3.35;2.40;;;;;;;;;;5095597;28;20054;-79
2023/06/12 02:42:55;;;;;;;2.60;2.38;;;;;;;;;;5078182;28;20442;-78
2023/06/12 02:45:23;;;;;;;2.55;2.35;;;;;;;;;;5096621;28;20024;-78
2023/06/12 02:47:49;;;;;;;3.00;2.67;;;;;;;;;;5095214;28;20028;-78
2023/06/12 02:50:14;;;;;;;2.50;2.30;;;;;;;;;;5095202;28;20383;-79
2023/06/12 02:52:40;;;;;;;2.60;2.40;;;;;;;;;;5095153;28;20028;-79
2023/06/12 02:55:06;;;;;;;3.20;2.70;;;;;;;;;;5078042;28;20036;-78
2023/06/12 02:57:32;;;;;;;2.50;2.30;;;;;;;;;;5096137;28;20024;-79
2023/06/12 02:59:58;;;;;;;3.35;2.60;;;;;;;;;;5078288;28;20038;-78
2023/06/12 03:02:23;;;;;;;2.58;2.38;;;;;;;;;;5094732;28;20032;-79
2023/06/12 03:04:48;;;;;;;4.82;2.88;;;;;;;;;;5078052;28;20035;-79
2023/06/12 03:07:16;;;;;;;2.40;2.20;;;;;;;;;;5094708;28;20028;-79
2023/06/12 03:09:42;;;;;;;4.10;2.47;;;;;;;;;;5095824;28;20047;-79
2023/06/12 03:12:08;;;;;;;2.97;2.67;;;;;;;;;;5094793;28;20020;-79
2023/06/12 03:14:33;;;;;;;3.13;2.35;;;;;;;;;;5095107;28;20035;-79
2023/06/12 03:16:59;;;;;;;5.25;2.78;;;;;;;;;;5095739;28;20035;-79
2023/06/12 03:19:24;;;;;;;2.58;2.38;;;;;;;;;;5094393;28;20116;-79
2023/06/12 03:21:49;;;;;;;2.88;2.53;;;;;;;;;;5094062;28;20036;-79
2023/06/12 03:24:15;;;;;;;2.60;2.40;;;;;;;;;;5094037;28;20027;-79
2023/06/12 03:26:41;;;;;;;2.97;2.60;;;;;;;;;;5095542;28;20016;-79
2023/06/12 03:29:07;;;;;;;2.60;2.40;;;;;;;;;;5094177;28;20078;-78
2023/06/12 03:31:32;;;;;;;4.70;2.55;;;;;;;;;;5094131;28;20070;-78
2023/06/12 03:33:58;;;;;;;2.50;2.30;;;;;;;;;;5094453;28;20092;-78
2023/06/12 03:36:25;;;;;;;4.25;2.92;;;;;;;;;;5077166;28;20556;-79
2023/06/12 03:38:50;;;;;;;4.63;2.40;;;;;;;;;;5095251;28;20394;-79
2023/06/12 03:41:16;;;;;;;3.58;2.45;;;;;;;;;;5077125;28;20036;-79
2023/06/12 03:43:43;;;;;;;3.50;2.55;;;;;;;;;;5095023;28;20060;-79
2023/06/12 03:46:09;;;;;;;3.85;2.70;;;;;;;;;;5095117;28;20081;-78
2023/06/12 03:48:35;;;;;;;3.10;2.80;;;;;;;;;;5095262;28;20141;-79
2023/06/12 03:51:00;;;;;;;2.80;2.50;;;;;;;;;;5093825;28;20045;-79
2023/06/12 03:53:25;;;;;;;2.83;2.53;;;;;;;;;;5095306;28;20056;-79
2023/06/12 03:55:51;;;;;;;2.42;2.22;;;;;;;;;;5059959;28;20101;-77
2023/06/12 03:58:17;;;;;;;3.17;2.70;;;;;;;;;;5093658;28;20032;-78
2023/06/12 04:00:47;;;;;;;3.47;2.78;;;;;;;;;;5095120;28;20032;-78
2023/06/12 04:03:17;;;;;;;2.85;2.63;;;;;;;;;;5093908;28;20111;-77
2023/06/12 04:05:47;;;;;;;2.65;2.25;;;;;;;;;;5094051;28;20467;-78
2023/06/12 04:08:12;;;;;;;7.72;2.80;;;;;;;;;;5077039;28;20039;-78
2023/06/12 04:10:38;;;;;;;12.45;5.88;;;;;;;;;;5093956;28;20540;-78
2023/06/12 04:13:04;;;;;;;14.85;5.63;;;;;;;;;;5093713;28;20035;-78
2023/06/12 04:15:29;;;;;;;15.07;6.22;;;;;;;;;;5076724;28;20024;-78
2023/06/12 04:17:57;;;;;;;11.18;5.28;;;;;;;;;;5095212;28;20390;-78
2023/06/12 04:20:23;;;;;;;10.88;5.00;;;;;;;;;;5093571;28;20038;-78
2023/06/12 04:22:49;;;;;;;10.68;5.10;;;;;;;;;;5093893;28;20471;-78
2023/06/12 04:25:14;;;;;;;11.48;5.05;;;;;;;;;;5094093;28;20020;-79
2023/06/12 04:27:42;;;;;;;8.68;4.93;;;;;;;;;;5094687;28;20475;-79
2023/06/12 04:30:09;;;;;;;8.20;4.78;;;;;;;;;;5094704;28;20036;-78
2023/06/12 04:32:34;;;;;;;11.35;5.45;;;;;;;;;;5094536;28;20023;-78
2023/06/12 04:35:00;;;;;;;6.95;4.00;;;;;;;;;;5094719;28;20023;-78
2023/06/12 04:37:25;;;;;;;7.45;3.88;;;;;;;;;;5076300;28;20028;-78
2023/06/12 04:39:52;;;;;;;6.10;3.47;;;;;;;;;;5093577;28;20386;-78
2023/06/12 04:42:18;;;;;;;4.18;3.45;;;;;;;;;;5092972;28;20496;-79
2023/06/12 04:44:46;;;;;;;6.72;3.30;;;;;;;;;;5094531;28;20110;-77
2023/06/12 04:47:14;;;;;;;5.13;2.97;;;;;;;;;;5093499;28;20597;-78
2023/06/12 04:49:45;;;;;;;6.43;2.85;;;;;;;;;;5093165;28;20032;-78
2023/06/12 04:52:12;;;;;;;5.13;3.10;;;;;;;;;;5094232;28;20096;-77
2023/06/12 04:54:44;;;;;;;5.93;3.28;;;;;;;;;;5092935;28;20367;-79
2023/06/12 04:57:13;;;;;;;7.75;3.72;;;;;;;;;;5093002;28;20035;-78
2023/06/12 04:59:39;;;;;;;7.63;3.90;;;;;;;;;;5093218;28;20024;-78
2023/06/12 05:02:07;;;;;;;6.18;3.70;;;;;;;;;;5094080;28;20054;-77
2023/06/12 05:04:33;;;;;;;5.93;3.70;;;;;;;;;;5094006;28;20382;-78
2023/06/12 05:06:59;;;;;;;6.25;3.50;;;;;;;;;;5094626;28;20028;-78
2023/06/12 05:09:25;;;;;;;8.73;3.15;;;;;;;;;;5093900;28;20081;-77
2023/06/12 05:11:51;;;;;;;10.93;3.60;;;;;;;;;;5092779;28;20028;-77
2023/06/12 05:14:16;;;;;;;5.15;3.22;;;;;;;;;;5094221;28;20382;-78
2023/06/12 05:16:41;;;;;;;6.68;3.95;;;;;;;;;;5093841;28;20081;-77
2023/06/12 05:19:09;;;;;;;8.77;4.00;;;;;;;;;;5092694;28;20081;-78
2023/06/12 05:21:34;;;;;;;9.55;4.15;;;;;;;;;;5093800;28;20032;-77
2023/06/12 05:23:59;;;;;;;9.35;4.88;;;;;;;;;;5092601;28;20024;-78
2023/06/12 05:26:25;;;;;;;11.68;4.68;;;;;;;;;;5093995;28;20028;-78
2023/06/12 05:28:50;;;;;;;14.00;5.28;;;;;;;;;;5094298;28;20062;-78
2023/06/12 05:31:16;;;;;;;10.45;5.43;;;;;;;;;;5093698;28;20410;-77
2023/06/12 05:33:41;;;;;;;13.90;4.80;;;;;;;;;;5093917;28;20055;-78
2023/06/12 05:36:07;;;;;;;10.48;5.05;;;;;;;;;;5092315;28;20027;-77
2023/06/12 05:38:33;;;;;;;9.68;4.50;;;;;;;;;;5075283;28;20032;-77
2023/06/12 05:40:59;;;;;;;10.65;4.72;;;;;;;;;;5093878;28;20043;-77
2023/06/12 05:43:24;;;;;;;12.70;4.88;;;;;;;;;;5093396;28;20498;-78
2023/06/12 05:45:50;;;;;;;7.70;4.25;;;;;;;;;;5092215;28;20018;-78
2023/06/12 05:48:15;;;;;;;13.10;4.57;;;;;;;;;;5075424;28;20463;-77
2023/06/12 05:50:40;;;;;;;9.52;4.32;;;;;;;;;;5092383;28;20034;-78
2023/06/12 05:53:08;;;;;;;7.03;4.15;;;;;;;;;;5092143;28;20039;-77
2023/06/12 05:55:34;;;;;;;8.32;3.97;;;;;;;;;;5093289;28;20028;-77
2023/06/12 05:57:59;;;;;;;7.95;4.72;;;;;;;;;;5092042;28;20028;-78
2023/06/12 06:00:24;;;;;;;9.57;3.90;;;;;;;;;;5092405;28;20035;-78
2023/06/12 06:02:50;;;;;;;8.30;4.22;;;;;;;;;;5093589;28;20467;-77
2023/06/12 06:05:16;;;;;;;8.93;3.97;;;;;;;;;;5092362;28;20150;-77
2023/06/12 06:07:42;;;;;;;6.63;4.07;;;;;;;;;;5092007;28;20024;-77
2023/06/12 06:10:08;;;;;;;7.72;4.13;;;;;;;;;;5093639;28;20043;-77
2023/06/12 06:12:33;;;;;;;6.65;3.60;;;;;;;;;;5093312;28;20390;-78
2023/06/12 06:14:59;;;;;;;9.82;4.43;;;;;;;;;;5092047;28;20078;-78
2023/06/12 06:17:24;;;;;;;7.18;4.20;;;;;;;;;;5091859;28;20038;-77
2023/06/12 06:19:49;;;;;;;6.05;3.72;;;;;;;;;;5074913;28;20031;-78
2023/06/12 06:22:17;;;;;;;7.90;3.75;;;;;;;;;;5092005;28;20028;-78
2023/06/12 06:24:43;;;;;;;6.05;3.53;;;;;;;;;;5091897;28;20028;-78
2023/06/12 06:27:09;;;;;;;8.80;3.60;;;;;;;;;;5093351;28;20107;-77
2023/06/12 06:29:34;;;;;;;9.02;3.65;;;;;;;;;;5075652;28;20395;-77
2023/06/12 06:31:59;;;;;;;4.63;3.25;;;;;;;;;;5091715;28;20398;-78
2023/06/12 06:34:26;;;;;;;6.78;3.83;;;;;;;;;;5091871;28;20536;-78
2023/06/12 06:36:51;;;;;;;5.05;3.55;;;;;;;;;;5091636;28;20437;-78
2023/06/12 06:39:17;;;;;;;6.32;3.53;;;;;;;;;;5093054;28;20028;-78
2023/06/12 06:41:42;;;;;;;4.10;3.08;;;;;;;;;;5091628;28;20059;-78
2023/06/12 06:44:07;;;;;;;5.32;3.30;;;;;;;;;;5092734;28;20075;-77
2023/06/12 06:46:33;;;;;;;7.25;4.10;;;;;;;;;;5074684;28;20024;-77
2023/06/12 06:48:58;;;;;;;4.28;3.28;;;;;;;;;;5093734;28;20036;-77
2023/06/12 06:51:24;;;;;;;4.15;3.05;;;;;;;;;;5095350;28;20497;-78
2023/06/12 06:53:49;;;;;;;5.20;3.53;;;;;;;;;;5095373;28;20107;-79
2023/06/12 06:56:16;;;;;;;5.15;3.13;;;;;;;;;;5095512;28;20036;-78
2023/06/12 06:58:41;;;;;;;6.03;3.58;;;;;;;;;;5095365;28;20028;-78
2023/06/12 07:01:07;;;;;;;5.63;3.15;;;;;;;;;;5096813;28;20111;-77
2023/06/12 07:03:33;;;;;;;5.72;3.53;;;;;;;;;;5078444;28;20032;-76
2023/06/12 07:05:58;;;;;;;6.53;3.70;;;;;;;;;;5095274;28;20081;-77
2023/06/12 07:08:24;;;;;;;7.68;3.53;;;;;;;;;;5094955;28;20032;-77
2023/06/12 07:10:50;;;;;;;7.32;3.65;;;;;;;;;;5095468;28;20032;-77
2023/06/12 07:13:15;;;;;;;4.82;3.58;;;;;;;;;;5078176;28;20028;-78
2023/06/12 07:15:41;;;;;;;3.45;2.92;;;;;;;;;;5094873;28;20078;-77
2023/06/12 07:18:07;;;;;;;9.38;3.33;;;;;;;;;;5096108;28;20367;-77
2023/06/12 07:20:33;;;;;;;4.88;3.58;;;;;;;;;;5095932;28;20028;-77
2023/06/12 07:22:58;;;;;;;5.35;3.10;;;;;;;;;;5096295;28;20106;-77
2023/06/12 07:25:23;;;;;;;12.50;3.58;;;;;;;;;;5094663;28;20024;-77
2023/06/12 07:27:49;;;;;;;4.47;3.30;;;;;;;;;;5094772;28;20085;-77
2023/06/12 07:30:15;;;;;;;4.68;3.30;;;;;;;;;;5094674;28;20052;-78
2023/06/12 07:32:40;;;;;;;7.88;3.55;;;;;;;;;;5094719;28;20544;-77
2023/06/12 07:35:06;;;;;;;5.50;2.90;;;;;;;;;;5094427;28;20039;-75
2023/06/12 07:37:35;;;;;;;6.38;3.72;;;;;;;;;;5096085;28;20028;-77
2023/06/12 07:40:03;;;;;;;8.95;3.67;;;;;;;;;;5095735;28;20039;-78
2023/06/12 07:42:28;;;;;;;3.78;3.13;;;;;;;;;;5078687;28;20076;-77
2023/06/12 07:44:53;;;;;;;3.88;3.10;;;;;;;;;;5057155;28;20506;-77
2023/06/12 07:47:19;;;;;;;8.23;3.63;;;;;;;;;;5075504;28;20117;-78
2023/06/12 07:49:44;;;;;;;5.85;3.10;;;;;;;;;;5075368;28;20024;-78
2023/06/12 07:52:10;;;;;;;4.63;3.28;;;;;;;;;;5040835;28;20024;-77
2023/06/12 07:54:35;;;;;;;4.20;3.05;;;;;;;;;;5040416;28;20037;-78
2023/06/12 07:57:01;;;;;;;4.70;3.08;;;;;;;;;;5074907;28;20028;-78
2023/06/12 07:59:26;;;;;;;4.95;3.10;;;;;;;;;;5075059;28;20069;-77
2023/06/12 08:01:51;;;;;;;7.90;3.05;;;;;;;;;;5057477;28;20036;-77
2023/06/12 08:04:17;;;;;;;4.88;2.90;;;;;;;;;;5057075;28;20494;-77
2023/06/12 08:06:44;;;;;;;5.40;2.92;;;;;;;;;;5074949;28;20028;-78
2023/06/12 08:09:10;;;;;;;6.97;3.28;;;;;;;;;;5074939;28;20047;-77
2023/06/12 08:11:35;;;;;;;7.63;2.92;;;;;;;;;;5076006;28;20048;-77
2023/06/12 08:14:01;;;;;;;6.63;3.65;;;;;;;;;;5057167;28;20028;-77
2023/06/12 08:16:26;;;;;;;4.03;3.10;;;;;;;;;;5056816;28;20029;-77
2023/06/12 08:18:52;;;;;;;4.68;2.97;;;;;;;;;;5040680;28;20062;-77
2023/06/12 08:21:17;;;;;;;4.22;3.50;;;;;;;;;;5056750;28;20054;-77
2023/06/12 08:23:43;;;;;;;5.43;3.22;;;;;;;;;;5074685;28;20115;-77
2023/06/12 08:26:08;;;;;;;5.20;2.83;;;;;;;;;;5074541;28;20040;-78
2023/06/12 08:28:37;;;;;;;5.50;3.42;;;;;;;;;;5074989;28;20029;-77
2023/06/12 08:31:03;;;;;;;3.80;3.13;;;;;;;;;;5056855;28;20028;-77
2023/06/12 08:33:29;;;;;;;4.50;3.28;;;;;;;;;;5074341;28;20036;-77
2023/06/12 08:35:54;;;;;;;6.93;3.88;;;;;;;;;;5039771;28;20028;-77
2023/06/12 08:38:20;;;;;;;8.00;3.10;;;;;;;;;;5056265;28;20032;-77
2023/06/12 08:40:46;;;;;;;6.13;3.35;;;;;;;;;;5056696;28;20121;-77
2023/06/12 08:43:11;;;;;;;8.50;3.28;;;;;;;;;;5056375;28;20098;-77
2023/06/12 08:45:40;;;;;;;4.32;3.08;;;;;;;;;;5074193;28;20056;-78
2023/06/12 08:48:06;;;;;;;3.47;3.17;;;;;;;;;;5074366;28;20115;-77
2023/06/12 08:50:33;;;;;;;3.85;2.97;;;;;;;;;;5039468;28;20372;-77
2023/06/12 08:52:59;;;;;;;4.65;3.20;;;;;;;;;;5056231;28;20062;-77
2023/06/12 08:55:25;;;;;;;9.85;3.25;;;;;;;;;;5056314;28;20033;-78
2023/06/12 08:57:51;;;;;;;8.18;3.40;;;;;;;;;;5074241;28;20024;-78
2023/06/12 09:00:19;;;;;;;5.30;3.08;;;;;;;;;;5074133;28;20122;-78
2023/06/12 09:02:54;;;;;;;4.07;3.10;;;;;;;;;;5073821;28;20020;-78
2023/06/12 09:05:21;;;;;;;4.93;3.00;;;;;;;;;;5074288;28;20028;-77
2023/06/12 09:07:47;;;;;;;3.50;3.13;;;;;;;;;;5074165;28;20036;-78
2023/06/12 09:10:14;;;;;;;4.45;3.58;;;;;;;;;;5056025;28;20041;-78
2023/06/12 09:12:43;;;;;;;5.45;3.08;;;;;;;;;;5039579;28;20032;-78
2023/06/12 09:15:09;;;;;;;5.57;3.33;;;;;;;;;;5056298;28;20391;-78
2023/06/12 09:17:37;;;;;;;4.65;3.03;;;;;;;;;;5055742;28;20039;-78
2023/06/12 09:20:04;;;;;;;6.13;3.42;;;;;;;;;;5073542;28;20077;-77
2023/06/12 09:22:30;;;;;;;5.65;3.30;;;;;;;;;;5055937;28;20021;-77
2023/06/12 09:24:56;;;;;;;6.88;3.10;;;;;;;;;;5055560;28;20024;-77
2023/06/12 09:27:22;;;;;;;6.78;3.33;;;;;;;;;;5055904;28;20028;-78
2023/06/12 09:29:47;;;;;;;4.57;3.30;;;;;;;;;;5055839;28;20031;-78
2023/06/12 09:32:14;;;;;;;4.15;3.35;;;;;;;;;;5055659;28;20483;-78
2023/06/12 09:34:46;;;;;;;4.10;3.03;;;;;;;;;;5055436;28;20379;-78
2023/06/12 09:37:14;;;;;;;12.05;4.03;;;;;;;;;;5038896;28;20032;-78
2023/06/12 09:39:39;;;;;;;6.20;3.20;;;;;;;;;;5055994;28;20044;-78
2023/06/12 09:42:06;;;;;;;4.20;3.13;;;;;;;;;;5073176;28;20036;-78
2023/06/12 09:44:31;;;;;;;4.65;3.33;;;;;;;;;;5038921;28;20051;-78
2023/06/12 09:47:04;;;;;;;4.75;3.20;;;;;;;;;;5073537;28;20028;-78
2023/06/12 09:49:31;;;;;;;7.43;3.00;;;;;;;;;;5055359;28;20111;-78
2023/06/12 09:52:00;;;;;;;3.42;3.13;;;;;;;;;;5022218;28;20041;-78
2023/06/12 09:54:28;;;;;;;4.95;3.13;;;;;;;;;;5073802;28;20027;-78
2023/06/12 09:56:56;;;;;;;9.65;3.47;;;;;;;;;;5038345;28;20016;-78
2023/06/12 09:59:22;;;;;;;4.00;3.42;;;;;;;;;;5038588;28;20021;-78
2023/06/12 10:01:53;;;;;;;3.25;2.95;;;;;;;;;;5038589;28;20135;-78
2023/06/12 10:04:31;;;;;;;5.53;3.10;;;;;;;;;;5055373;28;20348;-77
2023/06/12 10:07:03;;;;;;;4.35;2.80;;;;;;;;;;5055357;28;20020;-78
2023/06/12 10:09:29;;;;;;;3.40;3.10;;;;;;;;;;5072865;28;20087;-79
2023/06/12 10:11:57;;;;;;;6.85;3.45;;;;;;;;;;5055168;28;20032;-78
2023/06/12 10:14:26;;;;;;;3.90;2.97;;;;;;;;;;5055118;28;20477;-77
2023/06/12 10:16:54;;;;;;;8.27;3.38;;;;;;;;;;5038816;28;20033;-78
2023/06/12 10:19:21;;;;;;;7.63;3.55;;;;;;;;;;5054860;28;20033;-78
2023/06/12 10:21:47;;;;;;;4.65;2.95;;;;;;;;;;5054975;28;20024;-77
2023/06/12 10:24:12;;;;;;;6.53;3.20;;;;;;;;;;5056812;28;20082;-78
2023/06/12 10:26:38;;;;;;;3.78;3.00;;;;;;;;;;5058838;28;20462;-77
2023/06/12 10:29:26;;;;;;;4.15;3.10;;;;;;;;;;5058962;28;20032;-78
2023/06/12 10:31:51;;;;;;;4.63;3.13;;;;;;;;;;5058688;28;20430;-78
2023/06/12 10:34:17;;;;;;;4.07;3.00;;;;;;;;;;5077191;28;20025;-78
2023/06/12 10:36:44;;;;;;;6.13;2.70;;;;;;;;;;5076480;28;20454;-78
2023/06/12 10:39:19;;;;;;;7.03;3.83;;;;;;;;;;5058815;28;20463;-78
2023/06/12 10:41:58;;;;;;;5.70;3.25;;;;;;;;;;5059177;28;20494;-78
2023/06/12 10:44:38;;;;;;;5.53;3.33;;;;;;;;;;5074575;28;20053;-78
2023/06/12 10:47:05;;;;;;;5.38;3.17;;;;;;;;;;5076748;28;20115;-77
2023/06/12 10:49:31;;;;;;;5.05;3.25;;;;;;;;;;5076419;28;20035;-77
2023/06/12 10:51:59;;;;;;;6.82;3.53;;;;;;;;;;5058355;28;20029;-77
2023/06/12 10:54:26;;;;;;;5.70;3.53;;;;;;;;;;5075451;28;20035;-78
2023/06/12 10:56:58;;;;;;;5.40;3.30;;;;;;;;;;5075099;28;20081;-78
2023/06/12 10:59:34;;;;;;;5.65;2.85;;;;;;;;;;5075006;28;20029;-77
2023/06/12 11:02:00;;;;;;;4.10;2.97;;;;;;;;;;5075056;28;20096;-77
2023/06/12 11:04:26;;;;;;;4.50;3.08;;;;;;;;;;5076171;28;20510;-77
2023/06/12 11:06:51;;;;;;;4.63;3.08;;;;;;;;;;5074792;28;20025;-76
2023/06/12 11:09:17;;;;;;;5.15;3.30;;;;;;;;;;5074554;28;20028;-77
2023/06/12 11:11:48;;;;;;;3.67;3.03;;;;;;;;;;5076106;28;20044;-77
2023/06/12 11:14:13;;;;;;;4.53;3.33;;;;;;;;;;5075278;28;20043;-78
2023/06/12 11:16:42;;;;;;;3.55;3.25;;;;;;;;;;5074625;28;20037;-77
2023/06/12 11:19:07;;;;;;;3.88;3.00;;;;;;;;;;5074694;28;20029;-77
2023/06/12 11:21:33;;;;;;;3.22;2.90;;;;;;;;;;5041243;28;20034;-77
2023/06/12 11:24:05;;;;;;;3.67;3.33;;;;;;;;;;5074789;28;20044;-77
2023/06/12 11:26:31;;;;;;;4.13;3.10;;;;;;;;;;5074400;28;20541;-77
2023/06/12 11:29:21;;;;;;;3.08;2.85;;;;;;;;;;5074522;28;20029;-76
2023/06/12 11:31:51;;;;;;;5.57;2.83;;;;;;;;;;5074659;28;20021;-76
2023/06/12 11:34:16;;;;;;;4.32;2.88;;;;;;;;;;5074115;28;20052;-77
2023/06/12 11:36:42;;;;;;;3.85;3.05;;;;;;;;;;5075853;28;20059;-77
2023/06/12 11:39:17;;;;;;;3.70;2.92;;;;;;;;;;5075698;28;20037;-76
2023/06/12 11:41:43;;;;;;;4.22;2.90;;;;;;;;;;5074389;28;20028;-77
2023/06/12 11:44:08;;;;;;;3.28;2.72;;;;;;;;;;5075261;28;20083;-77
2023/06/12 11:46:34;;;;;;;4.07;2.55;;;;;;;;;;5075342;28;20056;-77
2023/06/12 11:49:01;;;;;;;3.40;3.03;;;;;;;;;;5075323;28;20082;-77
2023/06/12 11:51:27;;;;;;;3.78;3.10;;;;;;;;;;5075147;28;20478;-77
2023/06/12 11:53:52;;;;;;;3.20;2.83;;;;;;;;;;5057346;28;20086;-77
2023/06/12 11:56:18;;;;;;;3.60;2.88;;;;;;;;;;5056999;28;20032;-77
2023/06/12 11:58:46;;;;;;;3.75;3.05;;;;;;;;;;5057528;28;20025;-77
2023/06/12 12:01:21;;;;;;;4.50;3.00;;;;;;;;;;5057602;28;20372;-76
2023/06/12 12:03:47;;;;;;;3.63;2.90;;;;;;;;;;5058509;28;20028;-77
2023/06/12 12:06:13;;;;;;;3.25;2.80;;;;;;;;;;5057419;28;20024;-76
2023/06/12 12:08:39;;;;;;;3.10;2.80;;;;;;;;;;5040234;28;20036;-77
2023/06/12 12:11:27;;;;;;;3.58;2.90;;;;;;;;;;5075322;28;20130;-76
2023/06/12 12:14:00;;;;;;;3.60;2.80;;;;;;;;;;5057115;28;20078;-77
2023/06/12 12:16:28;;;;;;;3.88;3.00;;;;;;;;;;5074847;28;20029;-76
2023/06/12 12:18:54;;;;;;;3.47;2.80;;;;;;;;;;5057407;28;20048;-76
2023/06/12 12:21:21;;;;;;;3.83;2.80;;;;;;;;;;5074692;28;20483;-77
2023/06/12 12:23:46;;;;;;;3.17;2.88;;;;;;;;;;5056655;28;20107;-76
2023/06/12 12:26:13;;;;;;;3.22;2.60;;;;;;;;;;5056691;28;20108;-77
2023/06/12 12:28:38;;;;;;;3.05;2.50;;;;;;;;;;5040068;28;20032;-77
2023/06/12 12:31:04;;;;;;;4.60;2.70;;;;;;;;;;5056911;28;20085;-76
2023/06/12 12:33:29;;;;;;;4.80;2.75;;;;;;;;;;5056442;28;20032;-76
2023/06/12 12:35:54;;;;;;;3.05;2.50;;;;;;;;;;5056384;28;20033;-77
2023/06/12 12:38:20;;;;;;;2.85;2.55;;;;;;;;;;5074679;28;20029;-77
2023/06/12 12:40:45;;;;;;;2.65;2.45;;;;;;;;;;5074932;28;20036;-77
2023/06/12 12:43:10;;;;;;;3.38;2.63;;;;;;;;;;5074108;28;20056;-77
2023/06/12 12:45:36;;;;;;;2.95;2.70;;;;;;;;;;5023200;28;20115;-76
2023/06/12 12:48:02;;;;;;;2.60;2.40;;;;;;;;;;5038897;28;20544;-76
2023/06/12 12:50:28;;;;;;;3.40;2.70;;;;;;;;;;5056142;28;20028;-76
2023/06/12 12:52:54;;;;;;;3.45;2.60;;;;;;;;;;5074096;28;20029;-76
2023/06/12 12:55:19;;;;;;;3.45;2.60;;;;;;;;;;5073915;28;20028;-76
2023/06/12 12:57:45;;;;;;;3.22;2.45;;;;;;;;;;5056487;28;20514;-77
2023/06/12 13:00:12;;;;;;;2.90;2.60;;;;;;;;;;5056309;28;20429;-76
2023/06/12 13:02:42;;;;;;;2.88;2.58;;;;;;;;;;5039485;28;20095;-77
2023/06/12 13:05:13;;;;;;;3.08;2.50;;;;;;;;;;5072650;28;20074;-77
2023/06/12 13:07:39;;;;;;;3.67;2.42;;;;;;;;;;5056065;28;20078;-77
2023/06/12 13:10:14;;;;;;;2.70;2.50;;;;;;;;;;5056582;28;20460;-77
2023/06/12 13:12:40;;;;;;;3.22;2.50;;;;;;;;;;5056011;28;20032;-77
2023/06/12 13:15:06;;;;;;;3.67;2.65;;;;;;;;;;5073947;28;20039;-76
2023/06/12 13:17:32;;;;;;;2.97;2.38;;;;;;;;;;5073705;28;20471;-76
2023/06/12 13:19:57;;;;;;;4.65;3.00;;;;;;;;;;5074001;28;20078;-76
2023/06/12 13:22:23;;;;;;;3.75;2.53;;;;;;;;;;5056096;28;20378;-77
2023/06/12 13:24:48;;;;;;;4.13;2.42;;;;;;;;;;5038955;28;20037;-77
2023/06/12 13:27:13;;;;;;;3.20;2.45;;;;;;;;;;5073711;28;20086;-76
2023/06/12 13:29:39;;;;;;;2.65;2.45;;;;;;;;;;5073546;28;20044;-77
2023/06/12 13:32:05;;;;;;;2.88;2.58;;;;;;;;;;5073687;28;20028;-76
2023/06/12 13:34:31;;;;;;;4.07;2.80;;;;;;;;;;5055597;28;20098;-77
2023/06/12 13:36:57;;;;;;;4.50;2.70;;;;;;;;;;5038749;28;20032;-77
2023/06/12 13:39:22;;;;;;;5.88;2.92;;;;;;;;;;5073332;28;20085;-77
2023/06/12 13:41:48;;;;;;;3.72;2.90;;;;;;;;;;5073597;28;20479;-78
2023/06/12 13:44:13;;;;;;;7.68;3.00;;;;;;;;;;5073084;28;20052;-77
2023/06/12 13:46:39;;;;;;;3.65;2.70;;;;;;;;;;5073324;28;20040;-77
2023/06/12 13:49:05;;;;;;;3.83;2.80;;;;;;;;;;5055608;28;20597;-76
2023/06/12 13:51:36;;;;;;;3.92;2.60;;;;;;;;;;5038827;28;20028;-76
2023/06/12 13:54:02;;;;;;;3.60;2.80;;;;;;;;;;5056827;28;20027;-76
2023/06/12 13:56:28;;;;;;;4.88;2.90;;;;;;;;;;5073172;28;20032;-78
2023/06/12 13:58:54;;;;;;;3.40;3.10;;;;;;;;;;5060023;28;20039;-77
2023/06/12 14:01:20;;;;;;;3.78;2.50;;;;;;;;;;5078954;28;20028;-76
2023/06/12 14:03:45;;;;;;;4.25;2.70;;;;;;;;;;5045132;28;20101;-76
2023/06/12 14:06:11;;;;;;;3.90;2.88;;;;;;;;;;5062068;28;20070;-77
2023/06/12 14:08:40;;;;;;;3.20;2.70;;;;;;;;;;5062084;28;20031;-76
2023/06/12 14:11:09;;;;;;;3.60;2.80;;;;;;;;;;5080198;28;20097;-76
2023/06/12 14:13:35;;;;;;;4.57;2.55;;;;;;;;;;5061815;28;20024;-76
2023/06/12 14:16:04;;;;;;;3.92;2.80;;;;;;;;;;5061707;28;20025;-76
2023/06/12 14:18:30;;;;;;;4.78;3.05;;;;;;;;;;5061895;28;20040;-76
2023/06/12 14:20:55;;;;;;;3.08;2.53;;;;;;;;;;5061606;28;20039;-76
2023/06/12 14:23:22;;;;;;;3.95;2.63;;;;;;;;;;5061939;28;20078;-77
2023/06/12 14:25:47;;;;;;;5.93;2.75;;;;;;;;;;5061711;28;20081;-76
2023/06/12 14:28:13;;;;;;;3.78;2.72;;;;;;;;;;5079933;28;20028;-77
2023/06/12 14:30:38;;;;;;;4.00;2.60;;;;;;;;;;5045177;28;20037;-77
2023/06/12 14:33:04;;;;;;;3.22;2.80;;;;;;;;;;5044970;28;20033;-77
2023/06/12 14:35:29;;;;;;;3.60;2.53;;;;;;;;;;5079334;28;20406;-77
2023/06/12 14:37:55;;;;;;;3.47;2.50;;;;;;;;;;5061949;28;20038;-76
2023/06/12 14:40:20;;;;;;;2.42;2.22;;;;;;;;;;5045144;28;20363;-77
2023/06/12 14:42:45;;;;;;;3.00;2.58;;;;;;;;;;5058204;28;20056;-76